This is the latest recevied weather packets stored in our database for station/object YO9FTR-10. If no packets are shown the sender has not sent any weather packets the latest 10 day(s).
| Time | Temp. | Humidity | Pressure | Rain* | Wind** | Luminosity | Snow |
|---|---|---|---|---|---|---|---|
| 1777775259 | -0.56° C | 92% | 1025.6 hPa | - | - | - | - |
| 1777774356 | -1.11° C | 95% | 1025.7 hPa | - | - | - | - |
| 1777773453 | -1.67° C | 97% | 1025.8 hPa | - | - | - | - |
| 1777772550 | -1.11° C | 97% | 1025.7 hPa | - | - | - | - |
| 1777771647 | -1.11° C | 98% | 1025.8 hPa | - | - | - | - |
| 1777770744 | -1.11° C | 96% | 1025.8 hPa | - | - | - | - |
| 1777769841 | -1.11° C | 99% | 1025.8 hPa | - | - | - | - |
| 1777768939 | -0.56° C | 96% | 1025.8 hPa | - | - | - | - |
| 1777768036 | 0° C | 94% | 1025.8 hPa | - | - | - | - |
| 1777767132 | 0° C | 91% | 1025.8 hPa | - | - | - | - |
| 1777766230 | 0.56° C | 87% | 1025.8 hPa | - | - | - | - |
| 1777765327 | 1.11° C | 86% | 1025.8 hPa | - | - | - | - |
| 1777764424 | 1.11° C | 88% | 1026 hPa | - | - | - | - |
| 1777763521 | 1.11° C | 88% | 1026.1 hPa | - | - | - | - |
| 1777762618 | 0.56° C | 95% | 1026.4 hPa | - | - | - | - |
| 1777761716 | 0.56° C | 90% | 1026.4 hPa | - | - | - | - |
| 1777760812 | 0.56° C | 92% | 1026.5 hPa | - | - | - | - |
| 1777759909 | 1.11° C | 88% | 1026.6 hPa | - | - | - | - |
| 1777759006 | 0.56° C | 93% | 1026.8 hPa | - | - | - | - |
| 1777758104 | 1.11° C | 92% | 1026.9 hPa | - | - | - | - |
| 1777757201 | 1.11° C | 92% | 1026.8 hPa | - | - | - | - |
| 1777756298 | 1.11° C | 93% | 1026.8 hPa | - | - | - | - |
| 1777755395 | 1.11° C | 91% | 1026.8 hPa | - | - | - | - |
| 1777754491 | 1.67° C | 87% | 1026.7 hPa | - | - | - | - |
| 1777753589 | 1.11° C | 91% | 1026.8 hPa | - | - | - | - |
* Rain since midnight (hover to see other rain measurements)
** Current wind speed in m/s (hover to see current wind gust speed)